Terminal Aerodrome Forecast
Issued by NWS Charleston, WV

Home | Current Version | Previous Version | Text Only | Print | Product List | Glossary On
Versions: 1 2 3 4 5 6 7 8 9 10 11 12 13 14 15 16 17 18 19 20 21
000
FTUS41 KRLX 031700
TAFPKB
TAF
KPKB 031730Z 0318/0418 22004KT P6SM SCT250
     FM040200 00000KT P6SM SCT250
     FM041400 VRB03KT P6SM SCT050
     FM041600 21005KT P6SM SCT150=

USA.gov is the U.S. government's official web portal to all federal, state and local government web resources and services.